createdAt,value
2023-08-07T00:02:13.822Z,4.77
2023-08-07T00:04:42.147Z,4.87
2023-08-07T00:07:11.673Z,9.20
2023-08-07T00:09:39.876Z,6.27
2023-08-07T00:12:08.400Z,5.00
2023-08-07T00:14:36.602Z,5.80
2023-08-07T00:17:05.475Z,6.43
2023-08-07T00:19:34.320Z,3.63
2023-08-07T00:22:02.423Z,2.90
2023-08-07T00:24:32.030Z,5.20
2023-08-07T00:27:00.304Z,4.20
2023-08-07T00:29:28.482Z,7.07
2023-08-07T00:31:56.671Z,8.80
2023-08-07T00:34:25.249Z,3.80
2023-08-07T00:36:53.496Z,4.77
2023-08-07T00:39:22.242Z,7.50
2023-08-07T00:41:52.322Z,5.03
2023-08-07T00:44:20.645Z,3.40
2023-08-07T00:46:49.282Z,3.33
2023-08-07T00:49:19.206Z,8.17
2023-08-07T00:51:48.098Z,8.40
2023-08-07T00:54:20.296Z,8.20
2023-08-07T00:56:48.805Z,6.07
2023-08-07T00:59:18.699Z,3.07
2023-08-07T01:01:47.366Z,7.30
2023-08-07T01:04:15.498Z,11.70
2023-08-07T01:06:43.778Z,6.23
2023-08-07T01:09:12.268Z,3.77
2023-08-07T01:11:49.741Z,6.37
2023-08-07T01:14:28.745Z,3.97
2023-08-07T01:17:03.141Z,5.03
2023-08-07T01:19:32.816Z,4.13
2023-08-07T01:22:09.330Z,3.50
2023-08-07T01:24:38.856Z,7.43
2023-08-07T01:27:17.764Z,9.20
2023-08-07T01:29:53.397Z,4.37
2023-08-07T01:32:26.701Z,5.10
2023-08-07T01:34:58.726Z,3.50
2023-08-07T01:37:30.638Z,3.10
2023-08-07T01:40:01.001Z,3.70
2023-08-07T01:42:30.383Z,2.43
2023-08-07T01:44:58.839Z,5.13
2023-08-07T01:47:27.069Z,6.40
2023-08-07T01:49:55.417Z,2.73
2023-08-07T01:52:23.802Z,5.77
2023-08-07T01:54:53.432Z,5.93
2023-08-07T01:57:21.692Z,4.33
2023-08-07T01:59:50.085Z,8.50
2023-08-07T02:02:18.273Z,4.93
2023-08-07T02:04:46.472Z,4.20
2023-08-07T02:07:15.002Z,2.67
2023-08-07T02:09:43.187Z,3.37
2023-08-07T02:12:12.721Z,7.53
2023-08-07T02:14:41.018Z,7.03
2023-08-07T02:17:09.541Z,6.90
2023-08-07T02:19:37.701Z,4.47
2023-08-07T02:22:06.388Z,5.00
2023-08-07T02:24:34.589Z,6.53
2023-08-07T02:27:02.762Z,6.20
2023-08-07T02:29:35.233Z,5.93
2023-08-07T02:32:04.734Z,6.53
2023-08-07T02:34:33.581Z,4.47
2023-08-07T02:37:02.136Z,4.03
2023-08-07T02:39:30.445Z,3.63
2023-08-07T02:41:58.745Z,4.87
2023-08-07T02:44:27.234Z,4.03
2023-08-07T02:46:57.231Z,3.77
2023-08-07T02:49:27.130Z,4.60
2023-08-07T02:51:55.549Z,5.67
2023-08-07T02:54:23.721Z,3.83
2023-08-07T02:56:52.001Z,4.57
2023-08-07T02:59:20.554Z,2.57
2023-08-07T03:01:48.793Z,4.50
2023-08-07T03:04:18.413Z,5.23
2023-08-07T03:06:46.684Z,6.23
2023-08-07T03:09:14.857Z,4.07
2023-08-07T03:11:43.080Z,7.47
2023-08-07T03:14:11.443Z,3.57
2023-08-07T03:16:39.632Z,5.50
2023-08-07T03:19:07.897Z,4.03
2023-08-07T03:21:37.596Z,4.70
2023-08-07T03:24:06.143Z,6.10
2023-08-07T03:26:34.587Z,8.77
2023-08-07T03:29:03.025Z,7.33
2023-08-07T03:31:32.407Z,10.63
2023-08-07T03:34:00.736Z,4.77
2023-08-07T03:36:29.272Z,6.70
2023-08-07T03:38:58.847Z,5.37
2023-08-07T03:41:27.828Z,5.23
2023-08-07T03:43:56.305Z,5.67
2023-08-07T03:46:24.823Z,5.87
2023-08-07T03:48:53.016Z,6.10
2023-08-07T03:51:21.326Z,2.97
2023-08-07T03:53:49.656Z,4.03
2023-08-07T03:56:19.255Z,8.33
2023-08-07T03:58:48.078Z,6.97
2023-08-07T04:01:16.259Z,11.07
2023-08-07T04:03:44.838Z,5.43
2023-08-07T04:06:16.863Z,3.80
2023-08-07T04:08:47.096Z,4.63
2023-08-07T04:11:15.686Z,5.70
2023-08-07T04:13:45.335Z,5.30
2023-08-07T04:16:13.581Z,3.63
2023-08-07T04:18:41.993Z,9.57
2023-08-07T04:21:10.322Z,4.70
2023-08-07T04:23:39.406Z,7.53
2023-08-07T04:26:09.432Z,7.90
2023-08-07T04:28:37.750Z,5.33
2023-08-07T04:31:07.578Z,8.00
2023-08-07T04:33:37.345Z,9.50
2023-08-07T04:36:06.508Z,6.23
2023-08-07T04:38:34.773Z,5.03
2023-08-07T04:41:04.624Z,4.57
2023-08-07T04:43:33.500Z,6.77
2023-08-07T04:46:02.556Z,7.00
2023-08-07T04:48:32.414Z,5.80
2023-08-07T04:51:00.706Z,4.53
2023-08-07T04:53:28.944Z,5.73
2023-08-07T04:55:57.401Z,4.80
2023-08-07T04:58:25.617Z,9.30
2023-08-07T05:00:58.195Z,9.60
2023-08-07T05:03:27.998Z,7.03
2023-08-07T05:06:02.354Z,7.70
2023-08-07T05:08:30.845Z,8.80
2023-08-07T05:10:59.089Z,6.33
2023-08-07T05:13:27.279Z,8.20
2023-08-07T05:15:55.685Z,5.43
2023-08-07T05:18:23.976Z,5.23
2023-08-07T05:20:52.160Z,9.13
2023-08-07T05:23:21.930Z,4.30
2023-08-07T05:25:50.153Z,13.00
2023-08-07T05:28:18.679Z,12.47
2023-08-07T05:30:47.099Z,5.37
2023-08-07T05:33:16.825Z,3.20
2023-08-07T05:35:45.156Z,4.87
2023-08-07T05:38:13.525Z,6.60
2023-08-07T05:40:43.105Z,6.20
2023-08-07T05:43:12.238Z,5.00
2023-08-07T05:45:40.821Z,7.00
2023-08-07T05:48:10.525Z,9.90
2023-08-07T05:50:38.906Z,9.40
2023-08-07T05:53:07.293Z,7.80
2023-08-07T05:55:35.693Z,4.83
2023-08-07T05:58:05.332Z,7.63
2023-08-07T06:00:33.916Z,7.80
2023-08-07T06:03:02.266Z,4.17
2023-08-07T06:05:31.195Z,6.23
2023-08-07T06:07:59.622Z,8.17
2023-08-07T06:10:28.033Z,7.70
2023-08-07T06:12:56.412Z,5.13
2023-08-07T06:15:26.135Z,4.90
2023-08-07T06:17:54.419Z,6.23
2023-08-07T06:20:22.643Z,4.03
2023-08-07T06:22:50.885Z,6.67
2023-08-07T06:25:20.535Z,5.13
2023-08-07T06:27:48.831Z,5.47
2023-08-07T06:30:17.275Z,6.90
2023-08-07T06:32:46.957Z,3.73
2023-08-07T06:35:14.257Z,9.87
2023-08-07T06:37:42.571Z,9.10
2023-08-07T06:40:12.130Z,9.20
2023-08-07T06:42:41.019Z,6.30
2023-08-07T06:45:10.161Z,5.27
2023-08-07T06:47:38.450Z,4.80
2023-08-07T06:50:08.741Z,6.23
2023-08-07T06:52:37.655Z,6.60
2023-08-07T06:55:06.683Z,11.77
2023-08-07T06:57:35.308Z,7.63
2023-08-07T07:00:03.641Z,7.47
2023-08-07T07:02:31.916Z,5.37
2023-08-07T07:05:00.216Z,6.60
2023-08-07T07:07:29.994Z,5.23
2023-08-07T07:09:59.095Z,2.67
2023-08-07T07:12:27.352Z,6.30
2023-08-07T07:14:55.680Z,5.70
2023-08-07T07:17:24.154Z,4.93
2023-08-07T07:19:52.391Z,3.13
2023-08-07T07:22:20.737Z,4.37
2023-08-07T07:24:50.324Z,3.33
2023-08-07T07:27:19.222Z,6.77
2023-08-07T07:29:48.775Z,8.63
2023-08-07T07:32:17.107Z,2.70
2023-08-07T07:34:45.651Z,5.20
2023-08-07T07:37:15.311Z,3.53
2023-08-07T07:39:43.689Z,5.57
2023-08-07T07:42:13.407Z,4.87
2023-08-07T07:44:41.976Z,3.07
2023-08-07T07:47:13.453Z,6.67
2023-08-07T07:49:47.743Z,2.30
2023-08-07T07:52:16.189Z,5.70
2023-08-07T07:54:44.616Z,3.93
2023-08-07T07:57:14.198Z,4.37
2023-08-07T07:59:42.412Z,2.50
2023-08-07T08:02:10.914Z,2.23
2023-08-07T08:04:39.165Z,2.10
2023-08-07T08:07:08.073Z,3.90
2023-08-07T08:09:36.573Z,4.27
2023-08-07T08:12:05.679Z,2.40
2023-08-07T08:14:46.952Z,4.83
2023-08-07T08:17:23.137Z,4.30
2023-08-07T08:19:51.789Z,4.60
2023-08-07T08:22:20.607Z,15.67
2023-08-07T08:24:51.516Z,4.10
2023-08-07T08:27:19.941Z,3.40
2023-08-07T08:29:49.794Z,3.77
2023-08-07T08:32:18.109Z,2.60
2023-08-07T08:34:47.050Z,2.90
2023-08-07T08:37:15.367Z,3.07
2023-08-07T08:39:43.578Z,2.50
2023-08-07T08:42:14.498Z,2.20
2023-08-07T08:44:45.749Z,1.97
2023-08-07T08:47:16.776Z,2.40
2023-08-07T08:49:49.306Z,2.17
2023-08-07T08:52:18.286Z,4.00
2023-08-07T08:54:46.955Z,3.73
2023-08-07T08:57:15.589Z,1.83
2023-08-07T08:59:44.243Z,1.88
2023-08-07T09:02:12.653Z,2.08
2023-08-07T09:04:43.368Z,1.90
2023-08-07T09:07:13.040Z,2.08
2023-08-07T09:09:43.136Z,1.70
2023-08-07T09:12:18.417Z,1.77
2023-08-07T09:14:50.732Z,1.70
2023-08-07T09:17:19.901Z,2.10
2023-08-07T09:19:49.693Z,1.87
2023-08-07T09:22:18.461Z,1.83
2023-08-07T09:24:46.631Z,1.83
2023-08-07T09:27:15.764Z,2.73
2023-08-07T09:29:48.373Z,1.80
2023-08-07T09:32:17.249Z,2.10
2023-08-07T09:34:45.531Z,1.67
2023-08-07T09:37:15.112Z,1.85
2023-08-07T09:39:43.744Z,2.45
2023-08-07T09:42:16.404Z,1.70
2023-08-07T09:44:47.826Z,1.83
2023-08-07T09:47:17.217Z,1.77
2023-08-07T09:49:47.009Z,1.50
2023-08-07T09:52:17.600Z,1.73
2023-08-07T09:54:46.142Z,1.63
2023-08-07T09:57:15.992Z,3.22
2023-08-07T09:59:44.349Z,1.40
2023-08-07T10:02:13.606Z,1.50
2023-08-07T10:04:42.830Z,1.95
2023-08-07T10:07:13.701Z,1.60
2023-08-07T10:09:44.614Z,2.42
2023-08-07T10:12:13.792Z,2.28
2023-08-07T10:14:43.653Z,2.00
2023-08-07T10:17:12.958Z,2.00
2023-08-07T10:19:41.334Z,1.60
2023-08-07T10:22:10.548Z,1.90
2023-08-07T10:24:45.285Z,3.40
2023-08-07T10:27:14.736Z,1.70
2023-08-07T10:29:44.163Z,2.60
2023-08-07T10:32:13.062Z,1.80
2023-08-07T10:34:41.561Z,2.05
2023-08-07T10:37:09.857Z,1.60
2023-08-07T10:39:39.476Z,1.70
2023-08-07T10:42:09.419Z,1.40
2023-08-07T10:44:51.384Z,3.42
2023-08-07T10:47:35.956Z,2.50
2023-08-07T10:50:05.706Z,1.88
2023-08-07T10:52:34.016Z,3.25
2023-08-07T10:55:02.214Z,2.15
2023-08-07T10:57:35.329Z,2.00
2023-08-07T11:00:09.478Z,2.97
2023-08-07T11:02:45.490Z,1.20
2023-08-07T11:05:17.201Z,3.55
2023-08-07T11:07:49.464Z,1.88
2023-08-07T11:10:18.447Z,1.50
2023-08-07T11:12:48.974Z,1.50
2023-08-07T11:15:17.782Z,1.75
2023-08-07T11:17:47.839Z,2.88
2023-08-07T11:20:17.749Z,1.90
2023-08-07T11:22:46.618Z,1.40
2023-08-07T11:25:17.069Z,1.40
2023-08-07T11:27:48.395Z,1.40
2023-08-07T11:30:23.752Z,1.60
2023-08-07T11:32:53.329Z,1.43
2023-08-07T11:35:22.901Z,1.77
2023-08-07T11:38:02.165Z,1.67
2023-08-07T11:40:31.332Z,1.57
2023-08-07T11:43:02.643Z,1.50
2023-08-07T11:45:37.776Z,1.63
2023-08-07T11:48:07.986Z,1.47
2023-08-07T11:50:38.640Z,2.03
2023-08-07T11:53:08.570Z,1.40
2023-08-07T11:55:37.002Z,2.20
2023-08-07T11:58:07.321Z,2.63
2023-08-07T12:00:36.371Z,1.30
2023-08-07T12:03:04.769Z,1.73
2023-08-07T12:05:41.907Z,1.40
2023-08-07T12:08:10.324Z,1.47
2023-08-07T12:10:38.608Z,1.60
2023-08-07T12:13:10.734Z,2.23
2023-08-07T12:15:40.409Z,1.37
2023-08-07T12:18:10.224Z,1.17
2023-08-07T12:20:38.455Z,1.47
2023-08-07T12:23:06.815Z,1.60
2023-08-07T12:25:35.308Z,3.97
2023-08-07T12:28:03.529Z,1.30
2023-08-07T12:30:36.874Z,1.70
2023-08-07T12:33:05.803Z,1.27
2023-08-07T12:35:34.202Z,1.20
2023-08-07T12:38:03.115Z,2.40
2023-08-07T12:43:04.067Z,1.10
2023-08-07T12:48:05.595Z,2.40
2023-08-07T12:50:33.846Z,1.10
2023-08-07T12:53:02.206Z,1.77
2023-08-07T12:55:30.979Z,1.17
2023-08-07T12:58:00.355Z,1.40
2023-08-07T13:00:28.626Z,1.70
2023-08-07T13:02:59.822Z,1.30
2023-08-07T13:05:28.159Z,1.40
2023-08-07T13:07:59.453Z,1.20
2023-08-07T13:10:32.507Z,2.30
2023-08-07T13:13:02.562Z,1.07
2023-08-07T13:15:31.347Z,1.07
2023-08-07T13:18:01.891Z,1.03
2023-08-07T13:20:34.558Z,1.20
2023-08-07T13:23:05.663Z,1.30
2023-08-07T13:25:34.163Z,1.23
2023-08-07T13:28:05.613Z,1.53
2023-08-07T13:30:37.100Z,1.40
2023-08-07T13:33:07.645Z,1.00
2023-08-07T13:35:35.933Z,1.10
2023-08-07T13:38:06.426Z,0.90
2023-08-07T13:40:35.092Z,0.90
2023-08-07T13:43:08.875Z,0.97
2023-08-07T13:45:37.713Z,1.87
2023-08-07T13:48:10.699Z,0.93
2023-08-07T13:50:40.168Z,1.10
2023-08-07T13:53:15.176Z,0.93
2023-08-07T13:55:44.626Z,1.27
2023-08-07T13:58:13.431Z,1.17
2023-08-07T14:00:42.081Z,1.20
2023-08-07T14:03:14.443Z,1.23
2023-08-07T14:05:44.031Z,1.60
2023-08-07T14:08:12.743Z,1.50
2023-08-07T14:10:42.961Z,1.10
2023-08-07T14:13:12.686Z,1.00
2023-08-07T14:15:41.744Z,1.10
2023-08-07T14:18:10.772Z,2.93
2023-08-07T14:20:56.222Z,1.30
2023-08-07T14:23:30.645Z,1.13
2023-08-07T14:26:00.725Z,1.17
2023-08-07T14:28:29.873Z,1.00
2023-08-07T14:31:01.372Z,1.20
2023-08-07T14:33:31.028Z,1.90
2023-08-07T14:36:01.530Z,1.23
2023-08-07T14:38:29.812Z,1.27
2023-08-07T14:41:00.362Z,0.97
2023-08-07T14:43:32.306Z,0.80
2023-08-07T14:46:00.982Z,3.80
2023-08-07T14:48:29.266Z,3.77
2023-08-07T14:50:58.871Z,1.07
2023-08-07T14:53:28.910Z,1.97
2023-08-07T14:55:57.869Z,1.10
2023-08-07T14:58:26.209Z,1.30
2023-08-07T15:00:56.772Z,1.33
2023-08-07T15:03:25.274Z,0.90
2023-08-07T15:05:53.689Z,1.10
2023-08-07T15:08:22.922Z,1.20
2023-08-07T15:10:54.526Z,1.17
2023-08-07T15:13:22.977Z,3.07
2023-08-07T15:15:51.260Z,2.00
2023-08-07T15:18:19.739Z,2.20
2023-08-07T15:20:50.047Z,1.17
2023-08-07T15:23:18.466Z,2.20
2023-08-07T15:25:46.821Z,1.10
2023-08-07T15:28:16.540Z,1.80
2023-08-07T15:30:50.440Z,1.40
2023-08-07T15:33:21.413Z,1.30
2023-08-07T15:35:53.018Z,2.83
2023-08-07T15:38:21.537Z,1.93
2023-08-07T15:40:49.783Z,1.40
2023-08-07T15:43:19.489Z,1.97
2023-08-07T15:45:49.745Z,1.60
2023-08-07T15:48:19.205Z,1.60
2023-08-07T15:50:47.414Z,4.40
2023-08-07T15:53:15.722Z,1.83
2023-08-07T15:55:44.097Z,1.60
2023-08-07T15:58:12.425Z,1.43
2023-08-07T16:00:42.070Z,1.80
2023-08-07T16:03:11.073Z,1.93
2023-08-07T16:05:40.525Z,2.27
2023-08-07T16:08:09.722Z,1.80
2023-08-07T16:10:39.933Z,1.80
2023-08-07T16:13:08.881Z,3.03
2023-08-07T16:15:37.540Z,4.23
2023-08-07T16:18:07.968Z,1.67
2023-08-07T16:20:36.317Z,1.50
2023-08-07T16:23:04.700Z,1.43
2023-08-07T16:25:33.106Z,2.10
2023-08-07T16:28:02.641Z,1.70
2023-08-07T16:30:30.930Z,2.57
2023-08-07T16:32:59.367Z,2.30
2023-08-07T16:35:29.375Z,1.90
2023-08-07T16:37:57.773Z,3.90
2023-08-07T16:40:26.278Z,1.70
2023-08-07T16:42:54.543Z,1.40
2023-08-07T16:45:24.683Z,1.60
2023-08-07T16:47:53.056Z,1.60
2023-08-07T16:50:21.512Z,1.90
2023-08-07T16:52:51.146Z,1.83
2023-08-07T16:55:19.766Z,1.70
2023-08-07T16:57:48.044Z,2.20
2023-08-07T17:00:17.252Z,1.80
2023-08-07T17:02:47.463Z,2.43
2023-08-07T17:05:15.971Z,2.50
2023-08-07T17:07:44.207Z,1.70
2023-08-07T17:10:14.572Z,2.83
2023-08-07T17:12:43.926Z,1.67
2023-08-07T17:15:12.945Z,1.50
2023-08-07T17:17:41.211Z,1.53
2023-08-07T17:20:10.576Z,1.40
2023-08-07T17:22:38.956Z,2.00
2023-08-07T17:25:08.137Z,1.53
2023-08-07T17:27:37.789Z,1.60
2023-08-07T17:30:07.159Z,1.23
2023-08-07T17:32:37.928Z,1.13
2023-08-07T17:35:07.855Z,1.43
2023-08-07T17:37:36.166Z,2.10
2023-08-07T17:40:06.043Z,1.53
2023-08-07T17:42:35.572Z,1.40
2023-08-07T17:45:05.886Z,1.20
2023-08-07T17:47:34.146Z,1.30
2023-08-07T17:50:02.586Z,2.00
2023-08-07T17:52:32.773Z,1.60
2023-08-07T17:55:02.122Z,1.60
2023-08-07T17:57:30.613Z,1.90
2023-08-07T17:59:58.877Z,2.57
2023-08-07T18:02:28.633Z,1.30
2023-08-07T18:04:56.962Z,4.50
2023-08-07T18:07:25.286Z,1.60
2023-08-07T18:09:53.528Z,1.70
2023-08-07T18:12:21.929Z,1.60
2023-08-07T18:14:50.262Z,1.43
2023-08-07T18:17:18.713Z,2.20
2023-08-07T18:19:48.434Z,1.97
2023-08-07T18:22:16.692Z,1.97
2023-08-07T18:24:44.921Z,2.40
2023-08-07T18:27:13.879Z,2.73
2023-08-07T18:29:43.450Z,1.40
2023-08-07T18:32:11.716Z,1.23
2023-08-07T18:34:40.488Z,2.97
2023-08-07T18:37:10.199Z,1.50
2023-08-07T18:39:38.663Z,1.30
2023-08-07T18:42:07.802Z,1.57
2023-08-07T18:44:35.964Z,2.50
2023-08-07T18:47:04.212Z,1.90
2023-08-07T18:49:33.309Z,1.60
2023-08-07T18:52:01.930Z,2.83
2023-08-07T18:54:31.636Z,2.77
2023-08-07T18:57:03.339Z,2.00
2023-08-07T18:59:33.381Z,1.77
2023-08-07T19:02:01.816Z,1.63
2023-08-07T19:04:30.073Z,1.50
2023-08-07T19:06:58.433Z,1.37
2023-08-07T19:09:27.377Z,1.93
2023-08-07T19:11:56.992Z,2.70
2023-08-07T19:14:25.215Z,2.70
2023-08-07T19:16:53.662Z,4.27
2023-08-07T19:19:22.165Z,2.20
2023-08-07T19:21:50.361Z,1.97
2023-08-07T19:24:18.819Z,5.70
2023-08-07T19:26:47.062Z,1.80
2023-08-07T19:29:16.628Z,2.40
2023-08-07T19:31:45.044Z,2.17
2023-08-07T19:34:13.266Z,1.70
2023-08-07T19:36:54.256Z,1.90
2023-08-07T19:39:23.793Z,3.97
2023-08-07T19:41:52.656Z,2.10
2023-08-07T19:44:22.467Z,2.90
2023-08-07T19:46:53.724Z,5.57
2023-08-07T19:49:21.973Z,1.73
2023-08-07T19:51:50.199Z,2.53
2023-08-07T19:54:18.478Z,3.40
2023-08-07T19:56:46.781Z,3.53
2023-08-07T19:59:15.235Z,4.03
2023-08-07T20:01:44.957Z,2.20
2023-08-07T20:04:14.855Z,2.50
2023-08-07T20:06:43.383Z,2.77
2023-08-07T20:09:11.718Z,2.20
2023-08-07T20:11:40.155Z,2.33
2023-08-07T20:14:08.754Z,2.47
2023-08-07T20:16:37.030Z,2.60
2023-08-07T20:19:06.930Z,4.80
2023-08-07T20:21:35.198Z,2.87
2023-08-07T20:24:03.624Z,2.27
2023-08-07T20:26:33.972Z,2.63
2023-08-07T20:29:02.452Z,6.20
2023-08-07T20:31:30.812Z,2.47
2023-08-07T20:33:59.817Z,2.30
2023-08-07T20:36:30.535Z,2.73
2023-08-07T20:38:59.372Z,4.47
2023-08-07T20:41:27.832Z,3.00
2023-08-07T20:43:56.392Z,2.40
2023-08-07T20:46:25.439Z,6.37
2023-08-07T20:48:53.874Z,4.10
2023-08-07T20:51:22.296Z,4.37
2023-08-07T20:53:52.250Z,3.10
2023-08-07T20:56:20.695Z,2.27
2023-08-07T20:58:49.288Z,2.73
2023-08-07T21:01:17.546Z,3.93
2023-08-07T21:03:45.749Z,2.60
2023-08-07T21:06:14.068Z,2.93
2023-08-07T21:08:42.250Z,2.30
2023-08-07T21:11:11.840Z,2.77
2023-08-07T21:13:42.666Z,3.77
2023-08-07T21:16:10.937Z,2.40
2023-08-07T21:18:39.122Z,2.90
2023-08-07T21:21:07.504Z,4.63
2023-08-07T21:23:36.168Z,3.13
2023-08-07T21:26:04.503Z,2.43
2023-08-07T21:28:34.665Z,2.90
2023-08-07T21:31:04.102Z,9.30
2023-08-07T21:33:32.398Z,3.37
2023-08-07T21:36:00.759Z,4.73
2023-08-07T21:38:29.007Z,4.30
2023-08-07T21:40:57.265Z,4.97
2023-08-07T21:43:26.634Z,3.13
2023-08-07T21:45:56.420Z,3.23
2023-08-07T21:48:24.702Z,3.40
2023-08-07T21:50:54.962Z,4.53
2023-08-07T21:53:23.819Z,4.40
2023-08-07T21:55:52.743Z,7.90
2023-08-07T21:58:21.106Z,4.00
2023-08-07T22:00:49.643Z,4.13
2023-08-07T22:03:19.536Z,4.80
2023-08-07T22:05:48.457Z,7.30
2023-08-07T22:08:16.926Z,5.63
2023-08-07T22:10:45.151Z,4.37
2023-08-07T22:13:13.780Z,2.37
2023-08-07T22:15:42.215Z,7.17
2023-08-07T22:18:10.465Z,3.37
2023-08-07T22:20:40.410Z,3.23
2023-08-07T22:23:08.833Z,2.63
2023-08-07T22:25:38.031Z,3.70
2023-08-07T22:28:07.730Z,5.63
2023-08-07T22:30:36.074Z,3.93
2023-08-07T22:33:04.836Z,3.73
2023-08-07T22:35:33.394Z,4.33
2023-08-07T22:38:03.089Z,4.10
2023-08-07T22:40:31.302Z,3.60
2023-08-07T22:42:59.738Z,5.33
2023-08-07T22:45:28.953Z,2.97
2023-08-07T22:47:57.251Z,3.73
2023-08-07T22:50:25.979Z,2.87
2023-08-07T22:52:54.224Z,6.47
2023-08-07T22:55:23.944Z,5.63
2023-08-07T22:57:52.239Z,4.53
2023-08-07T23:00:20.818Z,4.57
2023-08-07T23:02:49.085Z,7.73
2023-08-07T23:05:18.142Z,5.33
2023-08-07T23:07:47.250Z,7.67
2023-08-07T23:10:16.710Z,4.33
2023-08-07T23:12:46.470Z,6.37
2023-08-07T23:15:15.013Z,6.60
2023-08-07T23:17:43.421Z,3.97
2023-08-07T23:20:12.369Z,4.33
2023-08-07T23:22:40.772Z,6.20
2023-08-07T23:25:09.824Z,4.87
2023-08-07T23:27:38.206Z,7.33
2023-08-07T23:30:10.275Z,6.20
2023-08-07T23:32:38.564Z,8.53
2023-08-07T23:35:07.247Z,6.17
2023-08-07T23:37:35.745Z,5.27
2023-08-07T23:40:04.386Z,8.07
2023-08-07T23:42:32.693Z,5.70
2023-08-07T23:45:01.561Z,5.63
2023-08-07T23:47:31.153Z,5.43
2023-08-07T23:49:59.546Z,9.53
2023-08-07T23:52:27.770Z,6.13
2023-08-07T23:54:56.039Z,6.77
2023-08-07T23:57:24.504Z,9.27
2023-08-07T23:59:52.854Z,8.00
